sensor_id;sensor_type;location;lat;lon;timestamp;pressure;altitude;pressure_sealevel;temperature;humidity
44663;BME280;30381;52.754;18.258;2023-03-24T00:02:20;99902.89;;;7.52;100.00
44663;BME280;30381;52.754;18.258;2023-03-24T00:04:47;99899.00;;;7.47;100.00
44663;BME280;30381;52.754;18.258;2023-03-24T00:07:14;99896.68;;;7.42;100.00
44663;BME280;30381;52.754;18.258;2023-03-24T00:09:42;99899.08;;;7.36;100.00
44663;BME280;30381;52.754;18.258;2023-03-24T00:12:09;99903.73;;;7.30;100.00
44663;BME280;30381;52.754;18.258;2023-03-24T00:14:36;99913.01;;;7.25;100.00
44663;BME280;30381;52.754;18.258;2023-03-24T00:17:07;99915.61;;;7.19;100.00
44663;BME280;30381;52.754;18.258;2023-03-24T00:19:39;99914.90;;;7.15;100.00
44663;BME280;30381;52.754;18.258;2023-03-24T00:22:07;99921.32;;;7.12;100.00
44663;BME280;30381;52.754;18.258;2023-03-24T00:24:34;99922.13;;;7.07;100.00
44663;BME280;30381;52.754;18.258;2023-03-24T00:27:00;99914.75;;;7.03;100.00
44663;BME280;30381;52.754;18.258;2023-03-24T00:29:28;99911.33;;;6.99;100.00
44663;BME280;30381;52.754;18.258;2023-03-24T00:31:54;99904.84;;;6.96;100.00
44663;BME280;30381;52.754;18.258;2023-03-24T00:34:21;99907.08;;;6.93;100.00
44663;BME280;30381;52.754;18.258;2023-03-24T00:36:48;99903.42;;;6.89;100.00
44663;BME280;30381;52.754;18.258;2023-03-24T00:39:17;99902.38;;;6.84;100.00
44663;BME280;30381;52.754;18.258;2023-03-24T00:41:44;99903.88;;;6.80;100.00
44663;BME280;30381;52.754;18.258;2023-03-24T00:44:13;99900.04;;;6.75;100.00
44663;BME280;30381;52.754;18.258;2023-03-24T00:46:47;99890.55;;;6.70;100.00
44663;BME280;30381;52.754;18.258;2023-03-24T00:49:27;99886.18;;;6.63;100.00
44663;BME280;30381;52.754;18.258;2023-03-24T00:52:15;99882.83;;;6.57;100.00
44663;BME280;30381;52.754;18.258;2023-03-24T00:54:43;99885.00;;;6.49;100.00
44663;BME280;30381;52.754;18.258;2023-03-24T00:57:11;99884.21;;;6.44;100.00
44663;BME280;30381;52.754;18.258;2023-03-24T00:59:37;99874.04;;;6.37;100.00
44663;BME280;30381;52.754;18.258;2023-03-24T01:02:08;99870.05;;;6.32;100.00
44663;BME280;30381;52.754;18.258;2023-03-24T01:04:38;99863.30;;;6.27;100.00
44663;BME280;30381;52.754;18.258;2023-03-24T01:07:06;99865.77;;;6.22;100.00
44663;BME280;30381;52.754;18.258;2023-03-24T01:09:36;99861.30;;;6.18;100.00
44663;BME280;30381;52.754;18.258;2023-03-24T01:12:03;99860.48;;;6.16;100.00
44663;BME280;30381;52.754;18.258;2023-03-24T01:14:30;99859.70;;;6.13;100.00
44663;BME280;30381;52.754;18.258;2023-03-24T01:16:57;99864.83;;;6.12;100.00
44663;BME280;30381;52.754;18.258;2023-03-24T01:19:24;99860.50;;;6.11;100.00
44663;BME280;30381;52.754;18.258;2023-03-24T01:21:51;99852.98;;;6.09;100.00
44663;BME280;30381;52.754;18.258;2023-03-24T01:24:20;99846.92;;;6.09;100.00
44663;BME280;30381;52.754;18.258;2023-03-24T01:26:50;99848.86;;;6.10;100.00
44663;BME280;30381;52.754;18.258;2023-03-24T01:29:17;99846.79;;;6.10;100.00
44663;BME280;30381;52.754;18.258;2023-03-24T01:31:43;99851.27;;;6.13;100.00
44663;BME280;30381;52.754;18.258;2023-03-24T01:34:09;99850.23;;;6.15;100.00
44663;BME280;30381;52.754;18.258;2023-03-24T01:36:35;99853.16;;;6.17;100.00
44663;BME280;30381;52.754;18.258;2023-03-24T01:39:01;99856.00;;;6.17;100.00
44663;BME280;30381;52.754;18.258;2023-03-24T01:41:32;99857.01;;;6.19;100.00
44663;BME280;30381;52.754;18.258;2023-03-24T01:43:59;99855.16;;;6.21;100.00
44663;BME280;30381;52.754;18.258;2023-03-24T01:46:25;99860.53;;;6.24;100.00
44663;BME280;30381;52.754;18.258;2023-03-24T01:49:02;99850.23;;;6.27;100.00
44663;BME280;30381;52.754;18.258;2023-03-24T01:51:38;99851.48;;;6.30;100.00
44663;BME280;30381;52.754;18.258;2023-03-24T01:56:41;99847.63;;;6.34;100.00
44663;BME280;30381;52.754;18.258;2023-03-24T01:59:12;99848.23;;;6.36;100.00
44663;BME280;30381;52.754;18.258;2023-03-24T02:01:39;99845.23;;;6.36;100.00
44663;BME280;30381;52.754;18.258;2023-03-24T02:04:06;99846.41;;;6.37;100.00
44663;BME280;30381;52.754;18.258;2023-03-24T02:06:35;99841.84;;;6.38;100.00
44663;BME280;30381;52.754;18.258;2023-03-24T02:09:07;99843.13;;;6.42;100.00
44663;BME280;30381;52.754;18.258;2023-03-24T02:11:34;99846.95;;;6.43;100.00
44663;BME280;30381;52.754;18.258;2023-03-24T02:14:02;99846.76;;;6.45;100.00
44663;BME280;30381;52.754;18.258;2023-03-24T02:17:16;99846.02;;;6.47;100.00
44663;BME280;30381;52.754;18.258;2023-03-24T02:28:41;99832.24;;;6.57;100.00
44663;BME280;30381;52.754;18.258;2023-03-24T02:43:04;99830.08;;;6.65;100.00
44663;BME280;30381;52.754;18.258;2023-03-24T02:45:40;99832.67;;;6.65;100.00
44663;BME280;30381;52.754;18.258;2023-03-24T02:56:20;99827.84;;;6.71;100.00
44663;BME280;30381;52.754;18.258;2023-03-24T02:58:52;99826.04;;;6.72;100.00
44663;BME280;30381;52.754;18.258;2023-03-24T03:01:31;99821.91;;;6.72;100.00
44663;BME280;30381;52.754;18.258;2023-03-24T03:04:02;99820.70;;;6.74;100.00
44663;BME280;30381;52.754;18.258;2023-03-24T03:06:33;99815.95;;;6.75;100.00
44663;BME280;30381;52.754;18.258;2023-03-24T03:09:06;99811.92;;;6.77;100.00
44663;BME280;30381;52.754;18.258;2023-03-24T03:11:33;99805.59;;;6.78;100.00
44663;BME280;30381;52.754;18.258;2023-03-24T03:14:03;99799.58;;;6.80;100.00
44663;BME280;30381;52.754;18.258;2023-03-24T03:16:58;99793.38;;;6.81;100.00
44663;BME280;30381;52.754;18.258;2023-03-24T03:19:37;99795.81;;;6.82;100.00
44663;BME280;30381;52.754;18.258;2023-03-24T03:22:11;99803.52;;;6.85;100.00
44663;BME280;30381;52.754;18.258;2023-03-24T03:24:41;99799.33;;;6.88;100.00
44663;BME280;30381;52.754;18.258;2023-03-24T03:27:16;99794.64;;;6.91;100.00
44663;BME280;30381;52.754;18.258;2023-03-24T03:29:46;99796.41;;;6.95;100.00
44663;BME280;30381;52.754;18.258;2023-03-24T03:32:21;99796.42;;;6.98;100.00
44663;BME280;30381;52.754;18.258;2023-03-24T03:35:12;99801.83;;;7.02;100.00
44663;BME280;30381;52.754;18.258;2023-03-24T03:37:46;99803.31;;;7.05;100.00
44663;BME280;30381;52.754;18.258;2023-03-24T03:40:21;99797.77;;;7.07;100.00
44663;BME280;30381;52.754;18.258;2023-03-24T03:42:50;99798.07;;;7.09;100.00
44663;BME280;30381;52.754;18.258;2023-03-24T03:45:17;99797.14;;;7.10;100.00
44663;BME280;30381;52.754;18.258;2023-03-24T03:47:44;99791.76;;;7.12;100.00
44663;BME280;30381;52.754;18.258;2023-03-24T03:50:10;99792.68;;;7.12;100.00
44663;BME280;30381;52.754;18.258;2023-03-24T03:52:37;99784.95;;;7.12;100.00
44663;BME280;30381;52.754;18.258;2023-03-24T03:55:05;99778.16;;;7.12;100.00
44663;BME280;30381;52.754;18.258;2023-03-24T03:57:34;99765.67;;;7.12;100.00
44663;BME280;30381;52.754;18.258;2023-03-24T04:00:01;99760.07;;;7.11;100.00
44663;BME280;30381;52.754;18.258;2023-03-24T04:08:13;99752.30;;;7.08;100.00
44663;BME280;30381;52.754;18.258;2023-03-24T04:13:43;99751.41;;;7.05;100.00
44663;BME280;30381;52.754;18.258;2023-03-24T04:19:10;99743.61;;;7.04;100.00
44663;BME280;30381;52.754;18.258;2023-03-24T04:21:47;99740.05;;;7.04;100.00
44663;BME280;30381;52.754;18.258;2023-03-24T04:24:39;99735.42;;;7.04;100.00
44663;BME280;30381;52.754;18.258;2023-03-24T04:27:22;99732.45;;;7.02;100.00
44663;BME280;30381;52.754;18.258;2023-03-24T04:30:04;99731.91;;;7.02;100.00
44663;BME280;30381;52.754;18.258;2023-03-24T04:32:45;99728.04;;;7.00;100.00
44663;BME280;30381;52.754;18.258;2023-03-24T04:35:23;99724.52;;;7.01;100.00
44663;BME280;30381;52.754;18.258;2023-03-24T04:38:03;99722.44;;;7.02;100.00
44663;BME280;30381;52.754;18.258;2023-03-24T04:40:31;99717.21;;;7.04;100.00
44663;BME280;30381;52.754;18.258;2023-03-24T04:43:01;99715.33;;;7.06;100.00
44663;BME280;30381;52.754;18.258;2023-03-24T04:45:32;99713.43;;;7.08;100.00
44663;BME280;30381;52.754;18.258;2023-03-24T04:48:03;99710.00;;;7.11;100.00
44663;BME280;30381;52.754;18.258;2023-03-24T04:50:37;99709.89;;;7.12;100.00
44663;BME280;30381;52.754;18.258;2023-03-24T04:53:05;99708.10;;;7.15;100.00
44663;BME280;30381;52.754;18.258;2023-03-24T04:56:11;99706.16;;;7.17;100.00
44663;BME280;30381;52.754;18.258;2023-03-24T04:58:41;99703.54;;;7.20;100.00
44663;BME280;30381;52.754;18.258;2023-03-24T05:01:07;99703.85;;;7.22;100.00
44663;BME280;30381;52.754;18.258;2023-03-24T05:03:34;99698.23;;;7.25;100.00
44663;BME280;30381;52.754;18.258;2023-03-24T05:06:03;99699.88;;;7.29;100.00
44663;BME280;30381;52.754;18.258;2023-03-24T05:08:32;99695.42;;;7.33;100.00
44663;BME280;30381;52.754;18.258;2023-03-24T05:10:58;99686.20;;;7.37;100.00
44663;BME280;30381;52.754;18.258;2023-03-24T05:13:24;99680.09;;;7.43;100.00
44663;BME280;30381;52.754;18.258;2023-03-24T05:15:54;99676.95;;;7.48;100.00
44663;BME280;30381;52.754;18.258;2023-03-24T05:18:20;99673.17;;;7.52;100.00
44663;BME280;30381;52.754;18.258;2023-03-24T05:20:46;99668.33;;;7.57;100.00
44663;BME280;30381;52.754;18.258;2023-03-24T05:23:12;99669.58;;;7.63;100.00
44663;BME280;30381;52.754;18.258;2023-03-24T05:25:38;99668.57;;;7.69;100.00
44663;BME280;30381;52.754;18.258;2023-03-24T05:28:04;99664.66;;;7.76;100.00
44663;BME280;30381;52.754;18.258;2023-03-24T05:30:31;99666.92;;;7.82;100.00
44663;BME280;30381;52.754;18.258;2023-03-24T05:32:57;99664.88;;;7.88;100.00
44663;BME280;30381;52.754;18.258;2023-03-24T05:35:23;99655.77;;;7.93;100.00
44663;BME280;30381;52.754;18.258;2023-03-24T05:37:49;99655.73;;;7.99;100.00
44663;BME280;30381;52.754;18.258;2023-03-24T05:40:16;99653.90;;;8.05;100.00
44663;BME280;30381;52.754;18.258;2023-03-24T05:42:42;99656.47;;;8.10;100.00
44663;BME280;30381;52.754;18.258;2023-03-24T05:45:10;99662.28;;;8.16;100.00
44663;BME280;30381;52.754;18.258;2023-03-24T05:47:36;99657.36;;;8.21;100.00
44663;BME280;30381;52.754;18.258;2023-03-24T05:50:03;99653.54;;;8.28;100.00
44663;BME280;30381;52.754;18.258;2023-03-24T05:52:36;99649.54;;;8.35;100.00
44663;BME280;30381;52.754;18.258;2023-03-24T05:55:03;99651.20;;;8.41;100.00
44663;BME280;30381;52.754;18.258;2023-03-24T05:57:29;99648.86;;;8.47;100.00
44663;BME280;30381;52.754;18.258;2023-03-24T05:59:56;99642.92;;;8.53;100.00
44663;BME280;30381;52.754;18.258;2023-03-24T06:02:22;99643.25;;;8.59;100.00
44663;BME280;30381;52.754;18.258;2023-03-24T06:04:50;99640.79;;;8.64;100.00
44663;BME280;30381;52.754;18.258;2023-03-24T06:07:17;99633.27;;;8.70;100.00
44663;BME280;30381;52.754;18.258;2023-03-24T06:09:43;99628.28;;;8.75;100.00
44663;BME280;30381;52.754;18.258;2023-03-24T06:12:12;99627.34;;;8.81;100.00
44663;BME280;30381;52.754;18.258;2023-03-24T06:14:39;99621.45;;;8.87;100.00
44663;BME280;30381;52.754;18.258;2023-03-24T06:17:06;99619.52;;;8.95;100.00
44663;BME280;30381;52.754;18.258;2023-03-24T06:19:32;99620.04;;;9.06;100.00
44663;BME280;30381;52.754;18.258;2023-03-24T06:21:59;99618.95;;;9.19;100.00
44663;BME280;30381;52.754;18.258;2023-03-24T06:24:28;99620.11;;;9.29;100.00
44663;BME280;30381;52.754;18.258;2023-03-24T06:26:54;99623.11;;;9.41;100.00
44663;BME280;30381;52.754;18.258;2023-03-24T06:29:28;99618.75;;;9.51;100.00
44663;BME280;30381;52.754;18.258;2023-03-24T06:31:55;99621.17;;;9.60;100.00
44663;BME280;30381;52.754;18.258;2023-03-24T06:34:22;99618.41;;;9.69;100.00
44663;BME280;30381;52.754;18.258;2023-03-24T06:36:50;99613.37;;;9.77;100.00
44663;BME280;30381;52.754;18.258;2023-03-24T06:39:16;99615.48;;;9.89;100.00
44663;BME280;30381;52.754;18.258;2023-03-24T06:41:43;99614.09;;;10.02;100.00
44663;BME280;30381;52.754;18.258;2023-03-24T06:44:09;99608.08;;;10.15;100.00
44663;BME280;30381;52.754;18.258;2023-03-24T06:46:35;99604.77;;;10.32;100.00
44663;BME280;30381;52.754;18.258;2023-03-24T06:49:01;99596.66;;;10.47;100.00
44663;BME280;30381;52.754;18.258;2023-03-24T06:51:27;99590.05;;;10.59;100.00
44663;BME280;30381;52.754;18.258;2023-03-24T06:53:53;99587.57;;;10.69;100.00
44663;BME280;30381;52.754;18.258;2023-03-24T06:56:19;99583.17;;;10.76;100.00
44663;BME280;30381;52.754;18.258;2023-03-24T06:58:46;99579.90;;;10.82;100.00
44663;BME280;30381;52.754;18.258;2023-03-24T07:01:14;99575.00;;;10.84;100.00
44663;BME280;30381;52.754;18.258;2023-03-24T07:03:40;99564.58;;;10.87;100.00
44663;BME280;30381;52.754;18.258;2023-03-24T07:06:08;99561.70;;;10.94;100.00
44663;BME280;30381;52.754;18.258;2023-03-24T07:08:35;99559.19;;;10.99;100.00
44663;BME280;30381;52.754;18.258;2023-03-24T07:11:02;99554.15;;;11.03;100.00
44663;BME280;30381;52.754;18.258;2023-03-24T07:13:28;99555.04;;;11.04;100.00
44663;BME280;30381;52.754;18.258;2023-03-24T07:15:55;99555.31;;;11.07;100.00
44663;BME280;30381;52.754;18.258;2023-03-24T07:18:21;99551.81;;;11.12;100.00
44663;BME280;30381;52.754;18.258;2023-03-24T07:20:47;99555.19;;;11.17;100.00
44663;BME280;30381;52.754;18.258;2023-03-24T07:23:13;99552.89;;;11.20;100.00
44663;BME280;30381;52.754;18.258;2023-03-24T07:25:40;99551.15;;;11.20;100.00
44663;BME280;30381;52.754;18.258;2023-03-24T07:28:06;99548.05;;;11.17;100.00
44663;BME280;30381;52.754;18.258;2023-03-24T07:30:33;99547.38;;;11.14;100.00
44663;BME280;30381;52.754;18.258;2023-03-24T07:33:02;99547.55;;;11.13;100.00
44663;BME280;30381;52.754;18.258;2023-03-24T07:35:28;99540.20;;;11.13;100.00
44663;BME280;30381;52.754;18.258;2023-03-24T07:37:59;99542.99;;;11.12;100.00
44663;BME280;30381;52.754;18.258;2023-03-24T07:40:26;99539.15;;;11.09;100.00
44663;BME280;30381;52.754;18.258;2023-03-24T07:42:52;99534.86;;;11.08;100.00
44663;BME280;30381;52.754;18.258;2023-03-24T07:45:19;99535.67;;;11.07;100.00
44663;BME280;30381;52.754;18.258;2023-03-24T07:47:45;99535.83;;;11.04;100.00
44663;BME280;30381;52.754;18.258;2023-03-24T07:50:12;99533.27;;;11.02;100.00
44663;BME280;30381;52.754;18.258;2023-03-24T07:52:40;99533.60;;;11.00;100.00
44663;BME280;30381;52.754;18.258;2023-03-24T07:55:14;99535.66;;;11.00;100.00
44663;BME280;30381;52.754;18.258;2023-03-24T07:58:11;99529.44;;;11.03;100.00
44663;BME280;30381;52.754;18.258;2023-03-24T08:00:39;99530.64;;;11.07;100.00
44663;BME280;30381;52.754;18.258;2023-03-24T08:06:27;99536.25;;;11.15;100.00
44663;BME280;30381;52.754;18.258;2023-03-24T08:09:45;99532.77;;;11.27;100.00
44663;BME280;30381;52.754;18.258;2023-03-24T08:12:29;99520.30;;;11.39;100.00
44663;BME280;30381;52.754;18.258;2023-03-24T08:14:57;99515.89;;;11.57;100.00
44663;BME280;30381;52.754;18.258;2023-03-24T08:17:43;99507.27;;;11.87;100.00
44663;BME280;30381;52.754;18.258;2023-03-24T08:20:29;99496.41;;;12.29;100.00
44663;BME280;30381;52.754;18.258;2023-03-24T08:23:15;99492.11;;;12.58;100.00
44663;BME280;30381;52.754;18.258;2023-03-24T08:26:06;99483.94;;;12.84;100.00
44663;BME280;30381;52.754;18.258;2023-03-24T08:28:37;99483.31;;;13.03;100.00
44663;BME280;30381;52.754;18.258;2023-03-24T08:31:04;99479.47;;;13.17;100.00
44663;BME280;30381;52.754;18.258;2023-03-24T08:33:30;99478.55;;;13.36;100.00
44663;BME280;30381;52.754;18.258;2023-03-24T08:36:06;99479.31;;;13.59;100.00
44663;BME280;30381;52.754;18.258;2023-03-24T08:38:37;99472.89;;;13.82;100.00
44663;BME280;30381;52.754;18.258;2023-03-24T08:41:28;99471.73;;;14.08;100.00
44663;BME280;30381;52.754;18.258;2023-03-24T08:44:26;99470.56;;;14.47;100.00
44663;BME280;30381;52.754;18.258;2023-03-24T08:53:20;99470.21;;;15.26;100.00
44663;BME280;30381;52.754;18.258;2023-03-24T08:56:08;99465.69;;;15.46;100.00
44663;BME280;30381;52.754;18.258;2023-03-24T09:05:24;99455.78;;;15.94;100.00
44663;BME280;30381;52.754;18.258;2023-03-24T09:08:39;99447.45;;;15.87;100.00
44663;BME280;30381;52.754;18.258;2023-03-24T09:14:09;99437.33;;;15.67;100.00
44663;BME280;30381;52.754;18.258;2023-03-24T09:19:24;99427.88;;;15.68;100.00
44663;BME280;30381;52.754;18.258;2023-03-24T09:22:18;99424.30;;;15.70;100.00
44663;BME280;30381;52.754;18.258;2023-03-24T09:28:00;99414.94;;;15.88;100.00
44663;BME280;30381;52.754;18.258;2023-03-24T09:45:47;99407.61;;;16.20;100.00
44663;BME280;30381;52.754;18.258;2023-03-24T09:49:01;99410.80;;;16.27;100.00
44663;BME280;30381;52.754;18.258;2023-03-24T09:51:48;99411.39;;;16.35;100.00
44663;BME280;30381;52.754;18.258;2023-03-24T09:54:52;99406.42;;;16.50;100.00
44663;BME280;30381;52.754;18.258;2023-03-24T10:18:23;99378.61;;;18.13;100.00
44663;BME280;30381;52.754;18.258;2023-03-24T10:24:41;99377.15;;;18.66;100.00
44663;BME280;30381;52.754;18.258;2023-03-24T10:28:32;99368.28;;;18.93;100.00
44663;BME280;30381;52.754;18.258;2023-03-24T10:35:14;99350.62;;;19.42;100.00
44663;BME280;30381;52.754;18.258;2023-03-24T10:37:44;99352.82;;;19.46;100.00
44663;BME280;30381;52.754;18.258;2023-03-24T10:40:38;99356.05;;;19.46;100.00
44663;BME280;30381;52.754;18.258;2023-03-24T10:46:24;99349.02;;;19.00;100.00
44663;BME280;30381;52.754;18.258;2023-03-24T10:54:59;99344.11;;;19.07;100.00
44663;BME280;30381;52.754;18.258;2023-03-24T11:00:43;99336.33;;;19.26;100.00
44663;BME280;30381;52.754;18.258;2023-03-24T11:03:33;99326.69;;;19.38;100.00
44663;BME280;30381;52.754;18.258;2023-03-24T11:06:28;99329.73;;;19.28;100.00
44663;BME280;30381;52.754;18.258;2023-03-24T11:20:50;99325.16;;;19.36;100.00
44663;BME280;30381;52.754;18.258;2023-03-24T11:27:00;99320.85;;;19.39;100.00
44663;BME280;30381;52.754;18.258;2023-03-24T11:41:02;99323.52;;;19.14;100.00
44663;BME280;30381;52.754;18.258;2023-03-24T11:52:45;99310.80;;;19.21;100.00
44663;BME280;30381;52.754;18.258;2023-03-24T11:55:36;99306.13;;;19.06;100.00
44663;BME280;30381;52.754;18.258;2023-03-24T11:58:30;99302.55;;;18.85;100.00
44663;BME280;30381;52.754;18.258;2023-03-24T13:05:47;99293.02;;;17.43;100.00
44663;BME280;30381;52.754;18.258;2023-03-24T13:12:18;99286.36;;;18.23;100.00
44663;BME280;30381;52.754;18.258;2023-03-24T13:47:15;99253.00;;;19.32;100.00
44663;BME280;30381;52.754;18.258;2023-03-24T14:29:49;99220.07;;;18.98;100.00
44663;BME280;30381;52.754;18.258;2023-03-24T14:47:42;99203.91;;;18.85;100.00
44663;BME280;30381;52.754;18.258;2023-03-24T14:50:28;99204.71;;;18.78;100.00
44663;BME280;30381;52.754;18.258;2023-03-24T14:53:02;99209.68;;;18.77;100.00
44663;BME280;30381;52.754;18.258;2023-03-24T14:55:35;99209.52;;;18.76;100.00
44663;BME280;30381;52.754;18.258;2023-03-24T14:58:23;99207.59;;;18.74;100.00
44663;BME280;30381;52.754;18.258;2023-03-24T15:00:57;99207.86;;;18.70;100.00
44663;BME280;30381;52.754;18.258;2023-03-24T15:03:29;99209.82;;;18.65;100.00
44663;BME280;30381;52.754;18.258;2023-03-24T15:08:36;99209.23;;;18.49;100.00
44663;BME280;30381;52.754;18.258;2023-03-24T15:11:06;99212.08;;;18.46;100.00
44663;BME280;30381;52.754;18.258;2023-03-24T15:13:47;99216.77;;;18.44;100.00
44663;BME280;30381;52.754;18.258;2023-03-24T15:19:19;99215.90;;;18.43;100.00
44663;BME280;30381;52.754;18.258;2023-03-24T15:22:08;99207.21;;;18.42;100.00
44663;BME280;30381;52.754;18.258;2023-03-24T15:24:47;99210.70;;;18.37;100.00
44663;BME280;30381;52.754;18.258;2023-03-24T15:27:18;99205.99;;;18.27;100.00
44663;BME280;30381;52.754;18.258;2023-03-24T15:30:12;99196.62;;;18.15;100.00
44663;BME280;30381;52.754;18.258;2023-03-24T15:32:40;99198.55;;;18.00;100.00
44663;BME280;30381;52.754;18.258;2023-03-24T15:35:26;99197.84;;;17.85;100.00
44663;BME280;30381;52.754;18.258;2023-03-24T15:37:54;99204.91;;;17.75;100.00
44663;BME280;30381;52.754;18.258;2023-03-24T15:42:53;99208.95;;;17.57;100.00
44663;BME280;30381;52.754;18.258;2023-03-24T15:45:25;99210.17;;;17.47;100.00
44663;BME280;30381;52.754;18.258;2023-03-24T15:47:53;99207.48;;;17.37;100.00
44663;BME280;30381;52.754;18.258;2023-03-24T15:50:41;99214.06;;;17.31;100.00
44663;BME280;30381;52.754;18.258;2023-03-24T15:55:45;99209.61;;;17.16;100.00
44663;BME280;30381;52.754;18.258;2023-03-24T15:58:26;99207.45;;;17.06;100.00
44663;BME280;30381;52.754;18.258;2023-03-24T16:00:57;99203.56;;;16.95;100.00
44663;BME280;30381;52.754;18.258;2023-03-24T16:03:25;99204.11;;;16.87;100.00
44663;BME280;30381;52.754;18.258;2023-03-24T16:05:53;99246.88;;;16.76;100.00
44663;BME280;30381;52.754;18.258;2023-03-24T16:08:33;99303.96;;;16.57;100.00
44663;BME280;30381;52.754;18.258;2023-03-24T16:11:26;99283.40;;;15.86;100.00
44663;BME280;30381;52.754;18.258;2023-03-24T16:13:53;99278.49;;;15.14;100.00
44663;BME280;30381;52.754;18.258;2023-03-24T16:16:26;99275.42;;;14.68;100.00
44663;BME280;30381;52.754;18.258;2023-03-24T16:18:54;99276.55;;;14.29;100.00
44663;BME280;30381;52.754;18.258;2023-03-24T16:21:27;99269.84;;;13.95;100.00
44663;BME280;30381;52.754;18.258;2023-03-24T16:23:56;99268.02;;;13.69;100.00
44663;BME280;30381;52.754;18.258;2023-03-24T16:26:25;99272.88;;;13.51;100.00
44663;BME280;30381;52.754;18.258;2023-03-24T16:28:53;99267.37;;;13.38;100.00
44663;BME280;30381;52.754;18.258;2023-03-24T16:31:26;99271.49;;;13.26;100.00
44663;BME280;30381;52.754;18.258;2023-03-24T16:33:55;99272.52;;;13.15;100.00
44663;BME280;30381;52.754;18.258;2023-03-24T16:36:26;99269.48;;;13.06;100.00
44663;BME280;30381;52.754;18.258;2023-03-24T16:39:22;99267.05;;;12.97;100.00
44663;BME280;30381;52.754;18.258;2023-03-24T16:41:48;99271.21;;;12.85;100.00
44663;BME280;30381;52.754;18.258;2023-03-24T16:44:17;99274.01;;;12.73;100.00
44663;BME280;30381;52.754;18.258;2023-03-24T16:46:49;99286.13;;;12.61;100.00
44663;BME280;30381;52.754;18.258;2023-03-24T16:49:20;99282.20;;;12.47;100.00
44663;BME280;30381;52.754;18.258;2023-03-24T16:51:52;99271.71;;;12.32;100.00
44663;BME280;30381;52.754;18.258;2023-03-24T16:54:20;99259.91;;;12.20;100.00
44663;BME280;30381;52.754;18.258;2023-03-24T16:56:46;99263.26;;;12.12;100.00
44663;BME280;30381;52.754;18.258;2023-03-24T16:59:14;99268.80;;;12.07;100.00
44663;BME280;30381;52.754;18.258;2023-03-24T17:01:43;99263.19;;;12.03;100.00
44663;BME280;30381;52.754;18.258;2023-03-24T17:04:17;99271.44;;;12.00;100.00
44663;BME280;30381;52.754;18.258;2023-03-24T17:06:54;99279.26;;;11.96;100.00
44663;BME280;30381;52.754;18.258;2023-03-24T17:09:22;99276.71;;;11.92;100.00
44663;BME280;30381;52.754;18.258;2023-03-24T17:12:08;99279.82;;;11.90;100.00
44663;BME280;30381;52.754;18.258;2023-03-24T17:14:37;99289.73;;;11.89;100.00
44663;BME280;30381;52.754;18.258;2023-03-24T17:17:05;99296.67;;;11.89;100.00
44663;BME280;30381;52.754;18.258;2023-03-24T17:19:55;99297.59;;;11.89;100.00
44663;BME280;30381;52.754;18.258;2023-03-24T17:22:24;99305.63;;;11.85;100.00
44663;BME280;30381;52.754;18.258;2023-03-24T17:25:03;99310.39;;;11.81;100.00
44663;BME280;30381;52.754;18.258;2023-03-24T17:27:33;99311.77;;;11.76;100.00
44663;BME280;30381;52.754;18.258;2023-03-24T17:30:05;99315.23;;;11.72;100.00
44663;BME280;30381;52.754;18.258;2023-03-24T17:32:36;99316.14;;;11.68;100.00
44663;BME280;30381;52.754;18.258;2023-03-24T17:35:02;99315.51;;;11.65;100.00
44663;BME280;30381;52.754;18.258;2023-03-24T17:39:57;99303.70;;;11.64;100.00
44663;BME280;30381;52.754;18.258;2023-03-24T17:42:30;99301.91;;;11.64;100.00
44663;BME280;30381;52.754;18.258;2023-03-24T17:44:59;99302.83;;;11.64;100.00
44663;BME280;30381;52.754;18.258;2023-03-24T17:47:39;99309.16;;;11.65;100.00
44663;BME280;30381;52.754;18.258;2023-03-24T17:50:18;99309.64;;;11.68;100.00
44663;BME280;30381;52.754;18.258;2023-03-24T17:53:00;99311.30;;;11.72;100.00
44663;BME280;30381;52.754;18.258;2023-03-24T17:55:50;99313.07;;;11.75;100.00
44663;BME280;30381;52.754;18.258;2023-03-24T17:58:44;99309.91;;;11.79;100.00
44663;BME280;30381;52.754;18.258;2023-03-24T18:01:16;99319.70;;;11.82;100.00
44663;BME280;30381;52.754;18.258;2023-03-24T18:04:08;99327.03;;;11.84;100.00
44663;BME280;30381;52.754;18.258;2023-03-24T18:09:11;99331.28;;;11.88;100.00
44663;BME280;30381;52.754;18.258;2023-03-24T18:11:37;99334.11;;;11.90;100.00
44663;BME280;30381;52.754;18.258;2023-03-24T18:16:28;99336.36;;;11.94;100.00
44663;BME280;30381;52.754;18.258;2023-03-24T18:19:20;99338.05;;;11.94;100.00
44663;BME280;30381;52.754;18.258;2023-03-24T18:21:54;99342.98;;;11.93;100.00
44663;BME280;30381;52.754;18.258;2023-03-24T18:24:23;99355.43;;;11.92;100.00
44663;BME280;30381;52.754;18.258;2023-03-24T18:26:52;99357.77;;;11.90;100.00
44663;BME280;30381;52.754;18.258;2023-03-24T18:29:20;99365.31;;;11.90;100.00
44663;BME280;30381;52.754;18.258;2023-03-24T18:31:49;99369.25;;;11.88;100.00
44663;BME280;30381;52.754;18.258;2023-03-24T18:34:16;99369.69;;;11.86;100.00
44663;BME280;30381;52.754;18.258;2023-03-24T18:37:02;99369.77;;;11.82;100.00
44663;BME280;30381;52.754;18.258;2023-03-24T18:39:34;99366.08;;;11.77;100.00
44663;BME280;30381;52.754;18.258;2023-03-24T18:42:03;99365.46;;;11.70;100.00
44663;BME280;30381;52.754;18.258;2023-03-24T18:44:29;99364.93;;;11.62;100.00
44663;BME280;30381;52.754;18.258;2023-03-24T18:46:58;99355.73;;;11.56;100.00
44663;BME280;30381;52.754;18.258;2023-03-24T18:50:02;99343.45;;;11.51;100.00
44663;BME280;30381;52.754;18.258;2023-03-24T18:57:33;99348.28;;;11.34;100.00